Weather reports worldwide

Advertisment
Monte Cimone, Italy (16134): temperature & dewpoint: 12.09.2019 06:00:00 - 18.09.2019 06:00:00 (CEST)Monte Cimone, Italy (16134): wind speed: 12.09.2019 06:00:00 - 18.09.2019 06:00:00 (CEST)Monte Cimone, Italy (16134): wind direction: 12.09.2019 06:00:00 - 18.09.2019 06:00:00 (CEST)Monte Cimone, Italy (16134): visibility: 12.09.2019 06:00:00 - 18.09.2019 06:00:00 (CEST)Monte Cimone, Italy (16134): sunshine duration: 12.09.2019 06:00:00 - 18.09.2019 06:00:00 (CEST)
Date & Time tt [°C] td [°C] ff [km/h] ff [kn] dd vv [km] sd [min]
18.09.2019 06:00:00 - - - - - - -
18.09.2019 05:00:00 12,8 2,7 8 4 N 50 -
18.09.2019 04:00:00 12,8 2,1 11 6 NNW 50 -
18.09.2019 03:00:00 12,8 2,7 11 6 NNW 50 -
18.09.2019 02:00:00 12,8 5,0 16 9 NNW 50 -
18.09.2019 01:00:00 13,6 4,7 21 11 NW 50 -
18.09.2019 00:00:00 13,6 3,4 24 13 WNW 50 -
17.09.2019 23:00:00 13,6 3,1 21 11 WNW 50 -
17.09.2019 22:00:00 14,0 3,2 16 9 W 50 -
17.09.2019 21:00:00 14,2 3,7 21 11 NW 50 -
17.09.2019 20:00:00 14,6 3,7 16 9 W 50 -
17.09.2019 19:00:00 15,4 9,3 11 6 W 50 36
17.09.2019 18:00:00 15,6 9,0 5 3 NNW 30 48
17.09.2019 17:00:00 16,4 9,6 8 4 WNW 50 60
17.09.2019 16:00:00 17,8 9,7 8 4 W 50 60
17.09.2019 15:00:00 18,0 9,6 5 3 SW 50 60
17.09.2019 14:00:00 17,8 8,7 5 3 SW 50 60
17.09.2019 13:00:00 16,8 6,3 5 3 SW 50 60
17.09.2019 12:00:00 15,2 6,2 5 3 SW 50 60
17.09.2019 11:00:00 15,4 5,9 5 3 SSW 50 60
17.09.2019 10:00:00 15,0 4,4 11 6 SW 50 60
17.09.2019 09:00:00 14,0 2,3 11 6 WNW 50 60
17.09.2019 08:00:00 13,6 0,3 15 8 WNW 50 60
17.09.2019 07:00:00 13,4 -0,6 22 12 NW 50 -
17.09.2019 06:00:00 13,6 -0,4 21 11 NW 50 -
17.09.2019 05:00:00 13,6 1,6 18 10 NW 50 -
17.09.2019 04:00:00 - - - - - - -
17.09.2019 03:00:00 13,0 3,4 18 10 NW 50 -
17.09.2019 02:00:00 13,4 3,8 21 11 WNW 50 -
17.09.2019 01:00:00 13,4 4,8 26 14 WNW 50 -
17.09.2019 00:00:00 13,4 3,2 26 14 WNW 50 -
16.09.2019 23:00:00 13,8 3,6 26 14 WNW 50 -
16.09.2019 22:00:00 14,0 3,7 18 10 WNW 50 -
16.09.2019 21:00:00 14,0 3,7 21 11 WNW 50 -
16.09.2019 20:00:00 14,8 4,5 22 12 WNW 50 -
16.09.2019 19:00:00 15,2 5,4 21 11 WNW 40 36
16.09.2019 18:00:00 16,0 9,4 8 4 WNW 30 48
16.09.2019 17:00:00 16,4 9,6 8 4 WNW 30 60
16.09.2019 16:00:00 17,0 8,7 4 2 W 30 60
16.09.2019 15:00:00 16,2 8,4 4 2 NNW 30 48
16.09.2019 14:00:00 16,4 8,6 4 2 NNW 40 60
16.09.2019 13:00:00 16,0 7,7 4 2 NNE 50 60
16.09.2019 12:00:00 14,4 2,3 4 2 N 50 60
16.09.2019 11:00:00 14,0 5,4 5 3 NNW 50 60
16.09.2019 10:00:00 13,0 2,2 8 4 NNW 50 60
16.09.2019 09:00:00 12,4 3,1 9 5 NNW 50 60
16.09.2019 08:00:00 12,4 2,8 9 5 N 50 24
16.09.2019 07:00:00 12,2 0,6 13 7 NNW 50 -
16.09.2019 06:00:00 12,0 2,7 15 8 NNW 50 -
16.09.2019 05:00:00 12,4 1,4 9 5 NNW 50 -
16.09.2019 04:00:00 12,4 -3,0 11 6 NNW 50 -
16.09.2019 03:00:00 12,0 -0,5 9 5 NNW 30 -
16.09.2019 02:00:00 12,0 3,7 8 4 N 50 -
16.09.2019 01:00:00 12,2 1,2 11 6 N 30 -
16.09.2019 00:00:00 12,6 1,3 8 4 NNW 50 -
15.09.2019 23:00:00 12,8 1,2 5 3 NNW 30 -
15.09.2019 22:00:00 13,0 1,7 5 3 NNW 30 -
15.09.2019 21:00:00 13,0 1,4 8 4 NW 30 -
15.09.2019 20:00:00 13,6 0,3 9 5 WNW 30 -
15.09.2019 19:00:00 13,6 0,3 11 6 NNW 30 0
15.09.2019 18:00:00 14,2 10,0 5 3 W 30 18
15.09.2019 17:00:00 15,4 10,0 8 4 SW 30 60
15.09.2019 16:00:00 15,4 10,0 5 3 W 30 60
15.09.2019 15:00:00 15,8 10,4 5 3 W 30 60
15.09.2019 14:00:00 15,8 9,9 5 3 S 30 48
15.09.2019 13:00:00 15,0 10,4 5 3 N 30 60
15.09.2019 12:00:00 13,8 7,1 5 3 NW 30 60
15.09.2019 11:00:00 13,0 7,0 5 3 NW 30 60
15.09.2019 10:00:00 12,4 6,5 13 7 N 30 60
15.09.2019 09:00:00 11,2 4,9 24 13 N 30 36
15.09.2019 08:00:00 11,2 4,9 26 14 N 30 0
15.09.2019 07:00:00 10,8 2,9 29 16 N 30 -
15.09.2019 06:00:00 10,8 2,9 29 16 N 30 -
15.09.2019 05:00:00 10,8 3,8 37 20 NNE 30 -
15.09.2019 04:00:00 - - - - - - -
15.09.2019 03:00:00 - - - - - - -
15.09.2019 02:00:00 11,8 0,0 28 15 NNE 30 -
15.09.2019 01:00:00 11,8 0,0 31 17 NNE 30 -
15.09.2019 00:00:00 11,4 -1,0 34 18 NNE 30 -
14.09.2019 23:00:00 11,4 -2,4 41 22 NNE 30 -
14.09.2019 22:00:00 12,0 1,6 26 14 NE 30 -
14.09.2019 21:00:00 12,0 1,9 24 13 NE 30 -
14.09.2019 20:00:00 12,4 2,0 24 13 NE 30 -
14.09.2019 19:00:00 12,4 2,3 13 7 NE 30 36
14.09.2019 18:00:00 13,2 3,3 8 4 E 30 60
14.09.2019 17:00:00 14,0 4,3 11 6 E 30 60
14.09.2019 16:00:00 14,8 8,1 5 3 WSW 30 60
14.09.2019 15:00:00 13,4 7,6 5 3 SSW 30 60
14.09.2019 14:00:00 13,0 8,1 13 7 ESE 30 60
14.09.2019 13:00:00 11,8 7,1 22 12 E 30 60
14.09.2019 12:00:00 11,4 5,7 26 14 E 30 60
14.09.2019 11:00:00 11,2 5,3 28 15 E 30 60
14.09.2019 10:00:00 10,6 4,7 34 18 E 30 60
14.09.2019 09:00:00 10,2 5,0 44 24 E 20 60
14.09.2019 08:00:00 10,4 5,2 48 26 E 20 18
14.09.2019 07:00:00 10,4 4,1 48 26 E 20 -
14.09.2019 06:00:00 10,8 4,5 50 27 E 20 -
14.09.2019 05:00:00 10,8 2,1 46 25 E 20 -
14.09.2019 04:00:00 - - - - - - -
14.09.2019 03:00:00 - - - - - - -
14.09.2019 02:00:00 11,0 -2,1 44 24 E 20 -
14.09.2019 01:00:00 10,6 -0,8 37 20 E 20 -
14.09.2019 00:00:00 11,0 -2,1 29 16 E 20 -
13.09.2019 23:00:00 11,4 -3,5 37 20 E 20 -
13.09.2019 22:00:00 11,8 -7,6 35 19 ENE 20 -
13.09.2019 21:00:00 11,8 -5,2 26 14 ENE 20 -
13.09.2019 20:00:00 12,2 -4,9 18 10 NE 30 0
13.09.2019 19:00:00 12,8 0,2 9 5 NNE 30 42
13.09.2019 18:00:00 12,8 7,0 5 3 SSW 30 60
13.09.2019 17:00:00 13,4 7,0 9 5 S 30 60
13.09.2019 16:00:00 13,4 7,0 5 3 SSW 30 60
13.09.2019 15:00:00 12,4 6,0 5 3 SE 30 60
13.09.2019 14:00:00 11,4 5,1 13 7 E 30 60
13.09.2019 13:00:00 9,8 6,5 29 16 E 30 60
13.09.2019 12:00:00 9,2 5,4 31 17 ENE 30 60
13.09.2019 11:00:00 9,0 3,8 29 16 E 30 60
13.09.2019 10:00:00 8,8 3,2 28 15 E 30 60
13.09.2019 09:00:00 8,0 1,6 39 21 ENE 30 60
13.09.2019 08:00:00 8,0 1,8 37 20 ENE 30 60
13.09.2019 07:00:00 8,0 2,0 41 22 ENE 30 -
13.09.2019 06:00:00 7,8 2,1 42 23 ENE 30 -
13.09.2019 05:00:00 7,8 3,1 44 24 ENE 30 -
13.09.2019 04:00:00 8,0 2,7 44 24 NE 30 -
13.09.2019 03:00:00 7,8 3,5 44 24 NE 30 -
13.09.2019 02:00:00 7,8 3,3 52 28 NE 30 -
13.09.2019 01:00:00 8,4 2,8 61 33 NE 30 -
13.09.2019 00:00:00 8,4 2,4 55 30 NE 30 -
12.09.2019 23:00:00 8,4 2,0 46 25 NE 30 -
12.09.2019 22:00:00 8,6 2,0 42 23 NNE 30 -
12.09.2019 21:00:00 9,0 2,1 44 24 NNE 30 -
12.09.2019 20:00:00 9,4 2,3 41 22 NNE 30 60
12.09.2019 19:00:00 9,6 2,9 24 13 NNE 30 60
12.09.2019 18:00:00 9,8 6,0 24 13 NNE 30 60
12.09.2019 17:00:00 10,0 5,6 22 12 N 30 60
12.09.2019 16:00:00 10,4 6,4 16 9 NNE 30 60
12.09.2019 15:00:00 10,4 6,5 13 7 NE 30 60
12.09.2019 14:00:00 10,8 4,7 13 7 N 30 60
12.09.2019 13:00:00 10,2 2,1 16 9 NNE 30 60
12.09.2019 12:00:00 8,6 3,0 13 7 NE 30 60
12.09.2019 11:00:00 8,6 2,8 34 18 NNE 30 60
12.09.2019 10:00:00 7,4 3,8 28 15 ENE 30 60
12.09.2019 09:00:00 8,0 3,8 37 20 NE 20 60
12.09.2019 08:00:00 7,8 3,7 39 21 NNE 20 18
12.09.2019 07:00:00 7,6 1,0 39 21 NNE 20 -
12.09.2019 06:00:00 8,0 0,2 41 22 NNE 20 -

tt = temperature
td = dewpoint
ff = wind speed
dd = wind direction
vv = visibility
sd = sunshine duration

Next stations